Time;durP1;ratioP1;P1;durP2;ratioP2;P2;SDS_P1;SDS_P2;PMS_P1;PMS_P2;Temp;Humidity;BMP_temperature;BMP_pressure;BME280_temperature;BME280_humidity;BME280_pressure;Samples;Min_cycle;Max_cycle;Signal;HPM_P1;HPM_P2
2024/01/14 00:02:18;;;;;;;14.98;2.35;;;3.90;99.90;;;;;;7378491;19;20022;-72
2024/01/14 00:05:06;;;;;;;13.02;2.53;;;3.90;99.90;;;;;;7375798;19;20739;-72
2024/01/14 00:07:33;;;;;;;13.15;1.98;;;3.90;99.90;;;;;;7375975;19;20087;-72
2024/01/14 00:10:05;;;;;;;10.20;1.98;;;3.90;99.90;;;;;;7376532;19;20023;-72
2024/01/14 00:12:32;;;;;;;12.00;2.00;;;3.80;99.90;;;;;;7376404;19;20014;-72
2024/01/14 00:14:59;;;;;;;16.08;2.08;;;3.80;99.90;;;;;;7372402;19;20046;-72
2024/01/14 00:17:25;;;;;;;13.88;2.17;;;3.80;99.90;;;;;;7375642;19;20026;-72
2024/01/14 00:19:52;;;;;;;17.75;2.72;;;3.80;99.90;;;;;;7373188;19;20785;-72
2024/01/14 00:22:18;;;;;;;14.48;2.35;;;3.90;99.90;;;;;;7377473;19;20014;-72
2024/01/14 00:25:05;;;;;;;11.57;1.85;;;3.80;99.90;;;;;;7375057;19;20027;-72
2024/01/14 00:27:51;;;;;;;12.45;2.20;;;3.70;99.90;;;;;;7373951;19;20022;-72
2024/01/14 00:30:18;;;;;;;16.70;2.28;;;3.80;99.90;;;;;;7374528;19;20022;-72
2024/01/14 00:32:44;;;;;;;10.02;2.40;;;3.80;99.90;;;;;;7375849;19;20023;-72
2024/01/14 00:35:31;;;;;;;14.27;2.10;;;3.80;99.90;;;;;;7370480;19;20112;-72
2024/01/14 00:38:17;;;;;;;14.15;2.20;;;3.90;99.90;;;;;;7371507;19;20035;-71
2024/01/14 00:40:44;;;;;;;9.45;1.67;;;3.90;99.90;;;;;;7376383;19;20033;-72
2024/01/14 00:43:10;;;;;;;12.65;2.13;;;3.90;99.90;;;;;;7373680;19;20015;-72
2024/01/14 00:45:40;;;;;;;9.68;1.73;;;3.90;99.90;;;;;;7374746;19;20023;-72
2024/01/14 00:48:06;;;;;;;13.15;2.33;;;3.90;99.90;;;;;;7373737;19;20022;-72
2024/01/14 00:50:33;;;;;;;11.80;2.10;;;3.90;99.90;;;;;;7373384;19;20045;-72
2024/01/14 00:53:19;;;;;;;13.23;2.50;;;3.90;99.90;;;;;;7374547;19;20026;-72
2024/01/14 00:55:46;;;;;;;12.88;2.28;;;3.90;99.90;;;;;;7371839;19;20014;-72
2024/01/14 00:58:14;;;;;;;12.05;1.98;;;4.00;99.90;;;;;;7373620;19;20022;-72
2024/01/14 01:00:48;;;;;;;13.43;2.53;;;4.00;99.90;;;;;;7373766;19;20018;-64
2024/01/14 01:03:14;;;;;;;11.15;2.47;;;3.90;99.90;;;;;;7375838;19;20905;-64
2024/01/14 01:05:41;;;;;;;12.13;2.00;;;3.90;99.90;;;;;;7372253;19;20582;-65
2024/01/14 01:08:08;;;;;;;14.80;1.83;;;3.90;99.90;;;;;;7367123;19;20018;-64
2024/01/14 01:10:39;;;;;;;9.73;1.85;;;3.90;99.90;;;;;;7378754;19;20611;-64
2024/01/14 01:13:13;;;;;;;13.18;2.20;;;3.90;99.90;;;;;;7372429;19;20493;-64
2024/01/14 01:15:40;;;;;;;14.90;2.08;;;3.90;99.90;;;;;;7375500;19;20026;-64
2024/01/14 01:18:06;;;;;;;11.32;2.33;;;4.00;99.90;;;;;;7372500;19;20021;-64
2024/01/14 01:20:33;;;;;;;14.00;2.60;;;4.00;99.90;;;;;;7377127;19;20018;-64
2024/01/14 01:22:59;;;;;;;13.48;2.03;;;4.10;99.90;;;;;;7373129;19;20014;-64
2024/01/14 01:25:27;;;;;;;9.65;1.90;;;4.10;99.90;;;;;;7377778;19;20029;-65
2024/01/14 01:27:53;;;;;;;9.50;1.77;;;4.10;99.90;;;;;;7373220;19;20090;-64
2024/01/14 01:30:20;;;;;;;10.95;2.00;;;4.20;99.90;;;;;;7369372;19;20758;-64
2024/01/14 01:32:46;;;;;;;8.65;1.95;;;4.20;99.90;;;;;;7374593;19;20078;-64
2024/01/14 01:35:13;;;;;;;11.52;1.85;;;4.30;99.90;;;;;;7368390;19;20371;-64
2024/01/14 01:37:39;;;;;;;8.55;1.52;;;4.30;99.90;;;;;;7364150;19;20018;-64
2024/01/14 01:40:09;;;;;;;11.15;1.52;;;4.30;99.90;;;;;;7371508;19;20503;-64
2024/01/14 01:42:35;;;;;;;7.20;1.60;;;4.30;99.90;;;;;;7373085;19;20022;-72
2024/01/14 01:45:21;;;;;;;9.38;1.83;;;4.30;99.90;;;;;;7374443;19;20019;-72
2024/01/14 01:47:48;;;;;;;14.32;2.30;;;4.30;99.90;;;;;;7368408;19;20054;-64
2024/01/14 01:50:35;;;;;;;16.52;1.92;;;4.30;99.90;;;;;;7374518;19;20026;-64
2024/01/14 01:53:02;;;;;;;9.88;1.98;;;4.20;99.90;;;;;;7370141;19;20010;-72
2024/01/14 01:55:32;;;;;;;9.05;1.95;;;4.20;99.90;;;;;;7374799;19;20027;-64
2024/01/14 01:57:58;;;;;;;11.88;1.95;;;4.20;99.90;;;;;;7368633;19;20046;-64
2024/01/14 02:00:25;;;;;;;9.07;2.35;;;4.20;99.90;;;;;;7374049;19;20026;-64
2024/01/14 02:02:52;;;;;;;12.88;2.10;;;4.20;99.90;;;;;;7370949;19;20387;-65
2024/01/14 02:05:21;;;;;;;13.63;2.35;;;4.30;99.90;;;;;;7372594;19;20022;-65
2024/01/14 02:07:48;;;;;;;19.20;2.05;;;4.20;99.90;;;;;;7373163;19;20906;-64
2024/01/14 02:10:14;;;;;;;22.90;2.60;;;4.20;99.90;;;;;;7373357;19;20018;-64
2024/01/14 02:12:40;;;;;;;13.27;2.15;;;4.10;99.90;;;;;;7373837;19;20014;-64
2024/01/14 02:15:09;;;;;;;10.52;2.28;;;4.10;99.90;;;;;;7374845;19;20014;-64
2024/01/14 02:17:50;;;;;;;13.68;2.40;;;4.00;99.90;;;;;;7371150;19;20011;-64
2024/01/14 02:20:17;;;;;;;12.88;2.25;;;4.00;99.90;;;;;;7371255;19;20052;-71
2024/01/14 02:22:45;;;;;;;19.42;2.72;;;3.90;99.90;;;;;;7374434;19;20549;-64
2024/01/14 02:25:12;;;;;;;9.32;2.00;;;3.80;99.90;;;;;;7371147;19;20018;-71
2024/01/14 02:27:58;;;;;;;12.90;1.90;;;3.70;99.90;;;;;;7369685;19;20022;-72
2024/01/14 02:30:26;;;;;;;13.27;2.00;;;3.60;99.90;;;;;;7368782;19;20022;-71
2024/01/14 02:32:54;;;;;;;12.05;1.95;;;3.60;99.90;;;;;;7372597;19;20014;-64
2024/01/14 02:35:20;;;;;;;14.55;1.90;;;3.60;99.90;;;;;;7373870;19;20011;-64
2024/01/14 02:38:06;;;;;;;19.00;2.75;;;3.60;99.90;;;;;;7371100;19;20010;-64
2024/01/14 02:40:42;;;;;;;12.52;2.38;;;3.70;99.90;;;;;;7370817;19;20684;-64
2024/01/14 02:43:09;;;;;;;7.65;1.50;;;3.70;99.90;;;;;;7372569;19;20023;-64
2024/01/14 02:45:36;;;;;;;14.20;3.20;;;3.70;99.90;;;;;;7369515;19;20777;-72
2024/01/14 02:48:03;;;;;;;13.52;2.05;;;3.70;99.90;;;;;;7367983;19;20022;-72
2024/01/14 02:50:29;;;;;;;10.18;1.70;;;3.70;99.90;;;;;;7369831;19;20047;-72
2024/01/14 02:53:09;;;;;;;11.40;2.00;;;3.70;99.90;;;;;;7371035;19;20094;-64
2024/01/14 02:55:56;;;;;;;17.70;2.78;;;3.60;99.90;;;;;;7369815;19;20018;-64
2024/01/14 02:58:22;;;;;;;17.13;2.33;;;3.70;99.90;;;;;;7369784;19;20032;-71
2024/01/14 03:00:48;;;;;;;16.17;2.58;;;3.60;99.90;;;;;;7372156;19;20971;-72
2024/01/14 03:03:14;;;;;;;15.23;2.53;;;3.60;99.90;;;;;;7369603;19;20018;-71
2024/01/14 03:05:59;;;;;;;16.27;2.47;;;3.60;99.90;;;;;;7369709;19;20097;-64
2024/01/14 03:08:28;;;;;;;15.23;2.58;;;3.50;99.90;;;;;;7366836;19;20119;-72
2024/01/14 03:10:55;;;;;;;14.07;2.30;;;3.50;99.90;;;;;;7365065;19;20018;-72
2024/01/14 03:13:21;;;;;;;14.60;2.28;;;3.40;99.90;;;;;;7371043;19;20038;-64
2024/01/14 03:15:48;;;;;;;13.00;2.35;;;3.40;99.90;;;;;;7372446;19;20586;-72
2024/01/14 03:18:17;;;;;;;11.90;2.00;;;3.30;99.90;;;;;;7370298;19;20553;-64
2024/01/14 03:20:44;;;;;;;15.80;2.55;;;3.30;99.90;;;;;;7371026;19;20018;-63
2024/01/14 03:23:19;;;;;;;12.38;1.98;;;3.30;99.90;;;;;;7373204;19;20045;-64
2024/01/14 03:25:45;;;;;;;12.13;2.80;;;3.20;99.90;;;;;;7370871;19;20093;-64
2024/01/14 03:28:28;;;;;;;13.18;2.75;;;3.30;99.90;;;;;;7369086;19;20095;-64
2024/01/14 03:30:54;;;;;;;17.17;2.13;;;3.40;99.90;;;;;;7363899;19;20022;-64
2024/01/14 03:33:31;;;;;;;11.75;2.10;;;3.30;99.90;;;;;;7370346;19;20023;-64
2024/01/14 03:36:00;;;;;;;15.75;2.42;;;3.30;99.90;;;;;;7370451;19;20027;-64
2024/01/14 03:38:26;;;;;;;15.02;2.65;;;3.30;99.90;;;;;;7368306;19;20015;-65
2024/01/14 03:40:54;;;;;;;21.92;2.67;;;3.30;99.90;;;;;;7367378;19;20022;-64
2024/01/14 03:43:21;;;;;;;17.77;3.20;;;3.20;99.90;;;;;;7371747;19;20049;-73
2024/01/14 03:45:50;;;;;;;19.63;3.15;;;3.20;99.90;;;;;;7372664;19;20018;-73
2024/01/14 03:48:17;;;;;;;14.23;3.20;;;3.20;99.90;;;;;;7365258;19;20852;-71
2024/01/14 03:50:43;;;;;;;12.90;2.13;;;3.20;99.90;;;;;;7368739;19;20511;-71
2024/01/14 03:53:10;;;;;;;19.48;2.97;;;3.20;99.90;;;;;;7367840;19;20021;-73
2024/01/14 03:55:36;;;;;;;9.80;2.08;;;3.20;99.90;;;;;;7371426;19;20639;-72
2024/01/14 03:58:03;;;;;;;10.38;1.90;;;3.10;99.90;;;;;;7369424;19;20079;-72
2024/01/14 04:00:29;;;;;;;11.05;1.83;;;3.10;99.90;;;;;;7365939;19;20021;-72
2024/01/14 04:02:56;;;;;;;13.88;2.70;;;3.10;99.90;;;;;;7368430;19;20019;-65
2024/01/14 04:05:22;;;;;;;11.30;2.40;;;3.10;99.90;;;;;;7371542;19;20030;-64
2024/01/14 04:07:51;;;;;;;21.70;2.63;;;3.10;99.90;;;;;;7370565;19;20019;-63
2024/01/14 04:10:17;;;;;;;12.70;2.05;;;3.10;99.90;;;;;;7368893;19;20029;-64
2024/01/14 04:12:44;;;;;;;12.32;2.67;;;3.10;99.90;;;;;;7375617;19;20030;-64
2024/01/14 04:15:13;;;;;;;16.05;2.35;;;3.10;99.90;;;;;;7374384;19;20119;-64
2024/01/14 04:17:59;;;;;;;12.18;2.35;;;3.10;99.90;;;;;;7371571;19;20025;-64
2024/01/14 04:20:26;;;;;;;17.55;2.40;;;3.00;99.90;;;;;;7369636;19;20041;-64
2024/01/14 04:22:53;;;;;;;13.43;2.58;;;3.00;99.90;;;;;;7370439;19;20035;-71
2024/01/14 04:25:30;;;;;;;15.70;2.00;;;3.00;99.90;;;;;;7369493;19;20483;-71
2024/01/14 04:27:57;;;;;;;15.65;2.53;;;2.90;99.90;;;;;;7372231;19;20023;-71
2024/01/14 04:30:23;;;;;;;21.58;2.33;;;2.90;99.90;;;;;;7370931;19;20018;-70
2024/01/14 04:32:53;;;;;;;16.20;2.30;;;2.90;99.90;;;;;;7373203;19;20019;-71
2024/01/14 04:35:19;;;;;;;8.90;1.50;;;2.90;99.90;;;;;;7369509;19;20022;-71
2024/01/14 04:37:46;;;;;;;12.02;2.20;;;2.90;99.90;;;;;;7370315;19;20022;-71
2024/01/14 04:40:14;;;;;;;14.77;2.33;;;2.90;99.90;;;;;;7370704;19;20010;-71
2024/01/14 04:42:41;;;;;;;15.38;2.00;;;3.00;99.90;;;;;;7369987;19;20777;-71
2024/01/14 04:45:15;;;;;;;19.45;3.00;;;3.00;99.90;;;;;;7369769;19;20019;-70
2024/01/14 04:47:42;;;;;;;15.57;2.47;;;3.10;99.90;;;;;;7368834;19;20485;-70
2024/01/14 04:50:09;;;;;;;15.68;2.15;;;3.10;99.90;;;;;;7370556;19;20048;-64
2024/01/14 04:52:57;;;;;;;13.13;2.33;;;3.20;99.90;;;;;;7370250;19;20516;-65
2024/01/14 04:55:44;;;;;;;12.60;1.88;;;3.30;99.90;;;;;;7372010;19;20037;-70
2024/01/14 04:58:31;;;;;;;15.25;2.33;;;3.30;99.90;;;;;;7374322;19;20357;-63
2024/01/14 05:01:17;;;;;;;14.68;2.03;;;3.30;99.90;;;;;;7366303;19;20054;-63
2024/01/14 05:03:47;;;;;;;10.88;1.67;;;3.30;99.90;;;;;;7372028;19;20022;-63
2024/01/14 05:06:14;;;;;;;12.60;2.28;;;3.40;99.90;;;;;;7370749;19;20065;-72
2024/01/14 05:08:42;;;;;;;13.48;2.63;;;3.40;99.90;;;;;;7372746;19;20463;-71
2024/01/14 05:11:10;;;;;;;13.40;2.10;;;3.40;99.90;;;;;;7361282;19;20421;-71
2024/01/14 05:13:36;;;;;;;8.13;1.88;;;3.40;99.90;;;;;;7365253;19;20105;-71
2024/01/14 05:16:03;;;;;;;11.90;2.13;;;3.40;99.90;;;;;;7369119;19;20018;-71
2024/01/14 05:18:30;;;;;;;10.02;1.92;;;3.30;99.90;;;;;;7369309;19;20018;-71
2024/01/14 05:20:58;;;;;;;15.23;2.20;;;3.30;99.90;;;;;;7362888;19;20015;-71
2024/01/14 05:23:25;;;;;;;12.88;2.22;;;3.20;99.90;;;;;;7370220;19;20563;-63
2024/01/14 05:26:02;;;;;;;14.63;2.22;;;3.20;99.90;;;;;;7367251;19;20365;-71
2024/01/14 05:28:43;;;;;;;13.45;2.25;;;3.20;99.90;;;;;;7370230;19;20021;-65
2024/01/14 05:31:10;;;;;;;7.78;1.50;;;3.10;99.90;;;;;;7365446;19;20022;-65
2024/01/14 05:33:38;;;;;;;15.02;1.80;;;3.00;99.90;;;;;;7370691;19;20022;-70
2024/01/14 05:36:24;;;;;;;9.98;2.00;;;3.00;99.90;;;;;;7368200;19;20026;-65
2024/01/14 05:38:53;;;;;;;11.48;1.75;;;2.90;99.90;;;;;;7373470;19;20070;-71
2024/01/14 05:41:23;;;;;;;8.68;1.58;;;2.90;99.90;;;;;;7364972;19;20612;-63
2024/01/14 05:43:50;;;;;;;14.80;2.00;;;2.80;99.90;;;;;;7371327;19;20014;-63
2024/01/14 05:46:19;;;;;;;11.30;1.35;;;2.90;99.90;;;;;;7369052;19;20019;-63
2024/01/14 05:48:45;;;;;;;8.88;1.35;;;2.90;99.90;;;;;;7367816;19;20031;-63
2024/01/14 05:51:21;;;;;;;10.07;1.85;;;2.90;99.90;;;;;;7367464;19;20086;-63
2024/01/14 05:53:48;;;;;;;11.55;1.58;;;2.90;99.90;;;;;;7371065;19;20025;-63
2024/01/14 05:56:26;;;;;;;9.95;1.65;;;2.90;99.90;;;;;;7370615;19;20348;-63
2024/01/14 05:58:53;;;;;;;9.15;1.63;;;3.00;99.90;;;;;;7368383;19;20014;-72
2024/01/14 06:01:20;;;;;;;12.40;2.20;;;3.00;99.90;;;;;;7367230;19;20011;-71
2024/01/14 06:03:47;;;;;;;10.93;1.73;;;3.00;99.90;;;;;;7371705;19;20379;-71
2024/01/14 06:06:14;;;;;;;9.40;1.55;;;3.00;99.90;;;;;;7364730;19;20030;-71
2024/01/14 06:09:00;;;;;;;8.95;1.73;;;3.00;99.90;;;;;;7367715;19;20022;-71
2024/01/14 06:11:27;;;;;;;14.43;1.98;;;3.10;99.90;;;;;;7366890;19;20479;-71
2024/01/14 06:13:54;;;;;;;10.80;1.90;;;3.10;99.90;;;;;;7367367;19;20645;-70
2024/01/14 06:16:21;;;;;;;7.82;1.70;;;3.10;99.90;;;;;;7367227;19;20747;-71
2024/01/14 06:18:48;;;;;;;12.25;2.03;;;3.10;99.90;;;;;;7369245;19;20026;-72
2024/01/14 06:21:14;;;;;;;8.93;1.48;;;3.10;99.90;;;;;;7366395;19;20022;-70
2024/01/14 06:23:42;;;;;;;9.75;1.63;;;3.10;99.90;;;;;;7364094;19;20050;-70
2024/01/14 06:26:15;;;;;;;5.90;1.40;;;3.20;99.90;;;;;;7363420;19;20078;-71
2024/01/14 06:28:42;;;;;;;9.68;1.95;;;3.20;99.90;;;;;;7362587;19;20385;-73
2024/01/14 06:31:09;;;;;;;14.38;2.10;;;3.20;99.90;;;;;;7363423;19;20026;-70
2024/01/14 06:33:35;;;;;;;14.07;2.25;;;3.20;99.90;;;;;;7368559;19;20837;-71
2024/01/14 06:36:07;;;;;;;6.22;1.50;;;3.30;99.90;;;;;;7366182;19;20122;-71
2024/01/14 06:38:34;;;;;;;12.38;2.25;;;3.30;99.90;;;;;;7365018;19;20027;-70
2024/01/14 06:41:01;;;;;;;9.57;1.55;;;3.20;99.90;;;;;;7365175;19;20899;-70
2024/01/14 06:43:27;;;;;;;15.02;2.03;;;3.20;99.90;;;;;;7366675;19;20487;-63
2024/01/14 06:45:54;;;;;;;13.85;1.88;;;3.30;99.90;;;;;;7367358;19;20022;-63
2024/01/14 06:48:20;;;;;;;8.48;1.98;;;3.30;99.90;;;;;;7366730;19;20014;-71
2024/01/14 06:51:06;;;;;;;12.40;2.08;;;3.20;99.90;;;;;;7364278;19;20022;-70
2024/01/14 06:53:35;;;;;;;18.75;2.25;;;3.20;99.90;;;;;;7370485;19;20073;-70
2024/01/14 06:56:04;;;;;;;12.35;2.30;;;3.20;99.90;;;;;;7366097;19;20543;-70
2024/01/14 06:58:34;;;;;;;11.43;2.90;;;3.20;99.90;;;;;;7367323;19;20023;-71
2024/01/14 07:01:20;;;;;;;9.95;2.00;;;3.10;99.90;;;;;;7364583;19;20025;-71
2024/01/14 07:03:48;;;;;;;13.82;2.30;;;3.10;99.90;;;;;;7369588;19;20023;-69
2024/01/14 07:06:16;;;;;;;11.02;1.85;;;3.10;99.90;;;;;;7367196;19;20048;-71
2024/01/14 07:09:02;;;;;;;12.63;2.22;;;3.10;99.90;;;;;;7367666;19;20018;-71
2024/01/14 07:11:48;;;;;;;17.50;2.50;;;3.10;99.90;;;;;;7366821;19;20773;-71
2024/01/14 07:14:34;;;;;;;9.18;1.80;;;3.10;99.90;;;;;;7366574;19;20040;-72
2024/01/14 07:17:21;;;;;;;14.13;2.40;;;3.00;99.90;;;;;;7363398;19;20155;-71
2024/01/14 07:19:49;;;;;;;12.50;2.72;;;3.00;99.90;;;;;;7366683;19;20635;-63
2024/01/14 07:22:16;;;;;;;8.70;1.95;;;3.00;99.90;;;;;;7368638;19;20478;-71
2024/01/14 07:24:43;;;;;;;11.98;1.90;;;2.90;99.90;;;;;;7368616;19;20014;-70
2024/01/14 07:27:11;;;;;;;8.13;1.70;;;2.90;99.90;;;;;;7366394;19;21243;-63
2024/01/14 07:29:45;;;;;;;11.20;2.10;;;2.90;99.90;;;;;;7372395;19;20018;-63
2024/01/14 07:32:14;;;;;;;7.63;1.58;;;2.90;99.90;;;;;;7369192;19;20438;-71
2024/01/14 07:34:41;;;;;;;13.10;2.13;;;2.90;99.90;;;;;;7370002;19;20022;-70
2024/01/14 07:37:08;;;;;;;12.30;2.10;;;2.80;99.90;;;;;;7363129;19;20479;-71
2024/01/14 07:39:36;;;;;;;6.93;1.92;;;2.80;99.90;;;;;;7370853;19;20771;-72
2024/01/14 07:42:07;;;;;;;13.60;2.13;;;2.80;99.90;;;;;;7365006;19;21278;-72
2024/01/14 07:44:35;;;;;;;8.30;1.52;;;2.80;99.90;;;;;;7369628;19;20813;-72
2024/01/14 07:47:09;;;;;;;14.20;1.80;;;2.80;99.90;;;;;;7373556;19;20028;-72
2024/01/14 07:49:41;;;;;;;10.18;2.22;;;2.90;99.90;;;;;;7374086;19;20109;-71
2024/01/14 07:52:09;;;;;;;11.57;2.17;;;3.00;99.90;;;;;;7375624;19;20014;-64
2024/01/14 07:54:55;;;;;;;14.05;2.50;;;3.00;99.90;;;;;;7371038;19;20014;-72
2024/01/14 07:57:41;;;;;;;10.20;2.67;;;3.00;99.90;;;;;;7372538;19;20755;-72
2024/01/14 08:00:21;;;;;;;8.13;1.40;;;3.10;99.90;;;;;;7374061;19;20019;-72
2024/01/14 08:03:08;;;;;;;12.23;2.10;;;3.10;99.90;;;;;;7371121;19;20103;-71
2024/01/14 08:05:37;;;;;;;13.57;2.53;;;3.20;99.90;;;;;;7372825;19;20018;-64
2024/01/14 08:08:24;;;;;;;9.02;1.80;;;3.20;99.90;;;;;;7372884;19;20026;-71
2024/01/14 08:11:10;;;;;;;7.53;2.08;;;3.30;99.90;;;;;;7372909;19;20022;-71
2024/01/14 08:13:58;;;;;;;9.23;2.08;;;3.30;99.90;;;;;;7376115;19;20934;-63
2024/01/14 08:16:40;;;;;;;12.77;2.08;;;3.30;99.90;;;;;;7373147;19;20036;-63
2024/01/14 08:19:10;;;;;;;10.15;2.03;;;3.40;99.90;;;;;;7374059;19;20019;-72
2024/01/14 08:21:44;;;;;;;9.35;2.13;;;3.30;99.90;;;;;;7376519;19;20014;-71
2024/01/14 08:24:19;;;;;;;8.80;1.40;;;3.40;99.90;;;;;;7375456;19;20014;-64
2024/01/14 08:27:06;;;;;;;6.03;1.30;;;3.40;99.90;;;;;;7372376;19;20058;-64
2024/01/14 08:29:44;;;;;;;9.32;1.95;;;3.50;99.90;;;;;;7375556;19;20022;-64
2024/01/14 08:32:30;;;;;;;9.07;2.35;;;3.50;99.90;;;;;;7377500;19;20018;-65
2024/01/14 08:35:00;;;;;;;9.85;1.95;;;3.50;99.90;;;;;;7375320;19;20509;-64
2024/01/14 08:37:46;;;;;;;8.85;2.00;;;3.50;99.90;;;;;;7374923;19;20014;-64
2024/01/14 08:40:23;;;;;;;10.05;1.75;;;3.60;99.90;;;;;;7375083;19;20074;-64
2024/01/14 08:42:50;;;;;;;8.02;2.10;;;3.60;99.90;;;;;;7377188;19;20015;-64
2024/01/14 08:45:20;;;;;;;6.72;1.50;;;3.60;99.90;;;;;;7375849;19;20044;-64
2024/01/14 08:47:47;;;;;;;6.45;1.40;;;3.60;99.90;;;;;;7378353;19;20029;-63
2024/01/14 08:50:16;;;;;;;7.35;1.35;;;3.50;99.90;;;;;;7380359;19;20649;-64
2024/01/14 08:52:45;;;;;;;5.63;1.55;;;3.60;99.90;;;;;;7378929;19;20011;-65
2024/01/14 08:55:14;;;;;;;8.60;1.77;;;3.70;99.90;;;;;;7378285;19;20027;-74
2024/01/14 08:57:42;;;;;;;11.07;1.80;;;3.70;99.90;;;;;;7372702;19;20036;-73
2024/01/14 09:00:11;;;;;;;9.60;1.50;;;3.70;99.90;;;;;;7377579;19;20035;-71
2024/01/14 09:02:47;;;;;;;7.43;1.40;;;3.70;99.90;;;;;;7377219;19;20034;-73
2024/01/14 09:05:15;;;;;;;9.00;1.50;;;3.70;99.90;;;;;;7375478;19;20110;-65
2024/01/14 09:07:42;;;;;;;6.40;1.27;;;3.70;99.90;;;;;;7376391;19;20011;-72
2024/01/14 09:10:13;;;;;;;7.53;1.53;;;3.80;99.90;;;;;;7377636;19;20007;-73
2024/01/14 09:12:41;;;;;;;4.32;1.20;;;3.90;99.90;;;;;;7375302;19;20139;-72
2024/01/14 09:15:11;;;;;;;8.45;1.45;;;4.00;99.90;;;;;;7375854;19;20014;-72
2024/01/14 09:17:42;;;;;;;8.45;1.38;;;4.10;99.90;;;;;;7369925;19;20014;-73
2024/01/14 09:20:09;;;;;;;7.40;1.40;;;4.20;99.90;;;;;;7376161;19;20019;-72
2024/01/14 09:22:37;;;;;;;11.90;1.70;;;4.10;99.90;;;;;;7376989;19;20082;-72
2024/01/14 09:25:06;;;;;;;10.02;2.28;;;4.10;99.90;;;;;;7374147;19;20022;-72
2024/01/14 09:27:34;;;;;;;5.60;1.58;;;4.10;99.90;;;;;;7375717;19;20014;-72
2024/01/14 09:30:01;;;;;;;10.63;1.50;;;4.10;99.90;;;;;;7376955;19;20025;-70
2024/01/14 09:32:27;;;;;;;10.15;1.95;;;4.20;99.90;;;;;;7376547;19;20062;-72
2024/01/14 09:34:55;;;;;;;8.25;1.73;;;4.20;99.90;;;;;;7374941;19;20021;-71
2024/01/14 09:37:21;;;;;;;9.52;1.20;;;4.20;99.90;;;;;;7372203;19;20106;-73
2024/01/14 09:39:48;;;;;;;10.70;1.48;;;4.30;99.90;;;;;;7375419;19;20018;-71
2024/01/14 09:42:32;;;;;;;6.93;1.42;;;4.30;99.90;;;;;;7376381;19;20034;-71
2024/01/14 09:45:00;;;;;;;6.50;1.17;;;4.30;99.90;;;;;;7373303;19;20018;-71
2024/01/14 09:47:27;;;;;;;6.70;1.20;;;4.30;99.90;;;;;;7375507;19;20102;-72
2024/01/14 09:49:54;;;;;;;5.05;1.02;;;4.30;99.90;;;;;;7372426;19;20019;-64
2024/01/14 09:52:21;;;;;;;4.88;0.98;;;4.30;99.90;;;;;;7374749;19;20137;-63
2024/01/14 09:54:48;;;;;;;2.78;1.17;;;4.40;99.90;;;;;;7370171;19;20039;-63
2024/01/14 09:57:18;;;;;;;4.57;0.88;;;4.50;99.90;;;;;;7373525;19;20018;-63
2024/01/14 09:59:46;;;;;;;3.55;0.88;;;4.70;99.90;;;;;;7373655;19;20019;-62
2024/01/14 10:02:12;;;;;;;3.45;1.30;;;4.90;99.90;;;;;;7373633;19;20110;-63
2024/01/14 10:04:43;;;;;;;4.03;0.90;;;5.10;99.90;;;;;;7372666;19;20027;-63
2024/01/14 10:07:10;;;;;;;2.85;0.88;;;5.00;99.90;;;;;;7375391;19;20475;-63
2024/01/14 10:09:39;;;;;;;4.03;1.42;;;5.00;99.90;;;;;;7375698;19;20011;-63
2024/01/14 10:12:08;;;;;;;5.35;1.25;;;4.90;99.90;;;;;;7374516;19;20345;-63
2024/01/14 10:14:35;;;;;;;3.78;1.08;;;4.80;99.90;;;;;;7375528;19;20058;-63
2024/01/14 10:17:02;;;;;;;2.08;1.17;;;4.70;99.90;;;;;;7371135;19;20685;-62
2024/01/14 10:19:29;;;;;;;5.82;1.20;;;4.70;99.90;;;;;;7375324;19;20029;-64
2024/01/14 10:21:56;;;;;;;3.60;1.15;;;4.50;99.90;;;;;;7372959;19;20018;-71
2024/01/14 10:24:24;;;;;;;4.95;1.20;;;4.50;99.90;;;;;;7375373;19;20094;-71
2024/01/14 10:26:54;;;;;;;1.83;1.20;;;4.50;99.90;;;;;;7374638;19;20019;-71
2024/01/14 10:29:22;;;;;;;5.05;1.20;;;4.50;99.90;;;;;;7374105;19;20010;-72
2024/01/14 10:31:48;;;;;;;3.03;1.10;;;4.60;99.90;;;;;;7371967;19;20018;-71
2024/01/14 10:34:17;;;;;;;2.67;1.20;;;4.80;99.90;;;;;;7375938;19;20025;-71
2024/01/14 10:36:43;;;;;;;4.22;1.90;;;5.00;99.90;;;;;;7372109;19;20015;-63
2024/01/14 10:39:13;;;;;;;3.05;1.10;;;5.20;99.90;;;;;;7370294;19;20019;-72
2024/01/14 10:41:42;;;;;;;2.88;1.67;;;5.50;99.90;;;;;;7371922;19;20103;-72
2024/01/14 10:44:09;;;;;;;5.18;2.70;;;5.40;99.90;;;;;;7372590;19;20424;-73
2024/01/14 10:46:38;;;;;;;9.32;3.70;;;5.30;99.90;;;;;;7370844;19;20014;-72
2024/01/14 10:49:08;;;;;;;10.27;3.60;;;5.20;99.90;;;;;;7368391;19;20019;-71
2024/01/14 10:51:42;;;;;;;10.38;5.78;;;5.00;99.90;;;;;;7373156;19;20018;-72
2024/01/14 10:54:50;;;;;;;11.05;6.25;;;4.90;99.90;;;;;;7370222;19;20451;-72
2024/01/14 10:57:33;;;;;;;10.95;6.55;;;5.00;99.90;;;;;;7371735;19;20463;-72
2024/01/14 11:00:08;;;;;;;15.80;7.55;;;5.00;99.90;;;;;;7369448;19;20026;-72
2024/01/14 11:02:39;;;;;;;18.80;8.68;;;5.20;99.90;;;;;;7365938;19;20018;-72
2024/01/14 11:05:07;;;;;;;12.88;8.30;;;5.50;99.90;;;;;;7368191;19;20097;-72
2024/01/14 11:07:34;;;;;;;15.13;7.78;;;5.60;99.90;;;;;;7371513;19;20050;-72
2024/01/14 11:10:05;;;;;;;17.40;9.48;;;5.60;99.90;;;;;;7368088;19;20854;-73
2024/01/14 11:12:41;;;;;;;20.30;9.73;;;5.60;99.90;;;;;;7371114;19;20022;-72
2024/01/14 11:15:19;;;;;;;16.63;9.45;;;5.50;99.90;;;;;;7367618;19;20590;-73
2024/01/14 11:18:09;;;;;;;17.00;9.90;;;5.30;99.90;;;;;;7366217;19;20010;-64
2024/01/14 11:20:38;;;;;;;15.48;8.65;;;5.10;99.90;;;;;;7374655;19;20025;-64
2024/01/14 11:23:05;;;;;;;15.82;7.75;;;5.00;99.90;;;;;;7378562;19;20074;-64
2024/01/14 11:25:33;;;;;;;16.23;9.80;;;4.90;99.90;;;;;;7378836;19;20102;-73
2024/01/14 11:28:05;;;;;;;15.52;8.98;;;4.90;99.90;;;;;;7376609;19;20018;-74
2024/01/14 11:30:47;;;;;;;13.02;7.45;;;5.10;99.90;;;;;;7376094;19;20029;-73
2024/01/14 11:33:39;;;;;;;11.45;5.55;;;5.30;99.90;;;;;;7375999;19;20029;-72
2024/01/14 11:36:07;;;;;;;13.93;6.35;;;5.40;99.90;;;;;;7379935;19;20024;-72
2024/01/14 11:38:57;;;;;;;10.18;5.93;;;5.50;99.90;;;;;;7373165;19;20015;-72
2024/01/14 11:41:32;;;;;;;14.85;6.30;;;5.60;99.90;;;;;;7375948;19;20022;-73
2024/01/14 11:44:03;;;;;;;11.10;6.80;;;5.90;99.90;;;;;;7376795;19;20010;-64
2024/01/14 11:46:40;;;;;;;14.17;7.37;;;5.80;99.90;;;;;;7377550;19;20082;-64
2024/01/14 11:49:11;;;;;;;14.45;7.05;;;5.60;99.90;;;;;;7374006;19;20014;-64
2024/01/14 11:51:43;;;;;;;12.47;7.60;;;5.40;99.90;;;;;;7377616;19;20023;-64
2024/01/14 11:54:10;;;;;;;;;;;5.20;99.90;;;;;;7375749;19;20263;-64
2024/01/14 11:56:36;;;;;;;13.40;7.35;;;5.10;99.90;;;;;;7378601;19;19938;-64
2024/01/14 11:59:07;;;;;;;13.07;7.35;;;5.10;99.90;;;;;;7375778;19;20498;-65
2024/01/14 12:01:34;;;;;;;12.20;6.70;;;5.00;99.90;;;;;;7376195;19;20455;-64
2024/01/14 12:04:08;;;;;;;10.40;5.88;;;5.00;99.90;;;;;;7376865;19;20049;-72
2024/01/14 12:06:44;;;;;;;16.77;7.28;;;5.10;99.90;;;;;;7383782;19;20037;-73
2024/01/14 12:09:13;;;;;;;11.50;6.63;;;5.20;99.90;;;;;;7378968;19;20530;-74
2024/01/14 12:11:41;;;;;;;12.55;7.25;;;5.10;99.90;;;;;;7379513;19;20035;-67
2024/01/14 12:14:08;;;;;;;14.43;7.28;;;5.10;99.90;;;;;;7373911;19;20846;-64
2024/01/14 12:16:35;;;;;;;10.45;6.30;;;5.10;99.90;;;;;;7376336;19;20492;-67
2024/01/14 12:19:18;;;;;;;11.90;6.80;;;5.10;99.90;;;;;;7373921;19;20015;-65
2024/01/14 12:21:44;;;;;;;11.00;7.20;;;5.00;99.90;;;;;;7372990;19;20086;-65
2024/01/14 12:24:12;;;;;;;16.40;9.00;;;4.90;99.90;;;;;;7372439;19;20025;-65
2024/01/14 12:26:44;;;;;;;13.85;8.50;;;4.90;99.90;;;;;;7374220;19;20015;-65
2024/01/14 12:29:10;;;;;;;17.35;9.98;;;4.90;99.90;;;;;;7379045;19;20027;-64
2024/01/14 12:31:37;;;;;;;17.27;10.80;;;4.90;99.90;;;;;;7371675;19;20015;-72
2024/01/14 12:34:08;;;;;;;17.67;10.82;;;4.80;99.90;;;;;;7379873;19;20023;-72
2024/01/14 12:36:54;;;;;;;17.20;10.65;;;4.80;99.90;;;;;;7375611;19;20025;-73
2024/01/14 12:39:20;;;;;;;20.30;11.73;;;4.90;99.90;;;;;;7374649;19;20034;-71
2024/01/14 12:41:49;;;;;;;18.55;12.13;;;5.00;99.90;;;;;;7376309;19;20022;-73
2024/01/14 12:44:16;;;;;;;18.70;11.93;;;4.90;99.90;;;;;;7378533;19;20019;-74
2024/01/14 12:46:42;;;;;;;18.98;11.57;;;5.10;99.90;;;;;;7376325;19;20106;-72
2024/01/14 12:49:11;;;;;;;20.60;12.95;;;5.20;99.90;;;;;;7377436;19;20047;-72
2024/01/14 12:51:38;;;;;;;18.40;12.85;;;5.20;99.90;;;;;;7379779;19;20636;-72
2024/01/14 12:54:04;;;;;;;20.50;13.00;;;5.10;99.90;;;;;;7385611;19;20180;-71
2024/01/14 12:56:31;;;;;;;20.98;13.27;;;5.10;99.90;;;;;;7378370;19;20018;-71
2024/01/14 12:58:57;;;;;;;26.27;13.43;;;5.10;99.90;;;;;;7378754;19;20024;-72
2024/01/14 13:01:23;;;;;;;20.85;13.02;;;5.00;99.90;;;;;;7382207;19;20023;-73
2024/01/14 13:04:10;;;;;;;20.42;12.20;;;5.00;99.90;;;;;;7385483;19;20378;-72
2024/01/14 13:06:36;;;;;;;25.67;14.52;;;5.00;99.90;;;;;;7384867;19;20018;-72
2024/01/14 13:09:02;;;;;;;24.20;14.32;;;5.00;99.90;;;;;;7386558;19;20010;-71
2024/01/14 13:11:29;;;;;;;24.33;14.85;;;5.00;99.90;;;;;;7391314;19;20014;-71